首页
METAR-TAF:

METAR-TAF

机场 :

蘇庫爾, 巴基斯坦

纬度: 27-43-19N, 经度: 068-47-31E, 海拔: 60米

当前天气观测

该预报发布于1小时和36分钟前的20:00 UTC
静风
温度 33°C
湿度 63%
气压 998 hPa
能見度: 4000
多云层高于10000英尺
霾,

METAR: OPSK 222000Z 00000KT 4000 HZ BKN100 33/25 Q0998 NOSIG

时间: 02:36 (21:36 UTC)

预报

该预报发布于4小时和36分钟前的17:00 UTC
预报有效从22日的 18点(UTC)到 23日的 18点(UTC)
风速10节,风向东南
能見度: 4000
少量云层高于3000英尺
散云层高于10000英尺
短暂存在
从 23日的 00点(UTC)到 23日的 04点(UTC)
风速节,风向
能見度: 3000
散云层高于3000英尺
多云层高于10000英尺
短暂存在
从 23日的 12点(UTC)到 23日的 18点(UTC)
风速17节,风向北转东北,有时为35节阵风
能見度: 1000
少量云层高于2500英尺, 积雨云.
散云层高于3000英尺
阴天层高于9000英尺
成为
从 23日的 18点(UTC)到 23日的 20点(UTC)
风速8节,风向
能見度: 4000
少量云层高于3000英尺
散云层高于10000英尺
霾,

TAF: OPSK 221700Z 2218/2318 14010KT 4000 HZ FEW030 SCT100 TEMPO 2300/2304 00000KT 3000 HZ SCT030 BKN100 TEMPO 2312/2318 03017G35KT 1000 DS/TSRA FEW025CB SCT030 OVC090 BECMG 2318/2320 18008KT 4000 HZ FEW030 SCT100

超过4000个机场的气象观测和天气预报(METAR&TAF报告)。

可查询的气象台以黄色和红色小点在地图上表示。

将鼠标移到小点上方,可查看气象台名称。

然后点击查看天气观测和预报。

如需切换地图:点击带黑十字的绿色按钮放大地图;点击带横线的绿色按钮缩小地图;或者点击绿色箭头查看邻近地区的地图。


METAR-TAF: